sensor_id;sensor_type;location;lat;lon;timestamp;pressure;altitude;pressure_sealevel;temperature;humidity
57192;BME280;43052;52.588;13.396;2022-10-16T00:00:31;100700.22;;;15.52;75.85
57192;BME280;43052;52.588;13.396;2022-10-16T00:02:56;100711.41;;;15.60;75.73
57192;BME280;43052;52.588;13.396;2022-10-16T00:05:21;100718.19;;;15.69;75.66
57192;BME280;43052;52.588;13.396;2022-10-16T00:07:46;100719.81;;;15.75;75.67
57192;BME280;43052;52.588;13.396;2022-10-16T00:10:12;100724.03;;;15.80;75.52
57192;BME280;43052;52.588;13.396;2022-10-16T00:12:37;100728.38;;;15.83;75.55
57192;BME280;43052;52.588;13.396;2022-10-16T00:15:02;100728.25;;;15.88;75.46
57192;BME280;43052;52.588;13.396;2022-10-16T00:17:29;100707.31;;;15.81;75.32
57192;BME280;43052;52.588;13.396;2022-10-16T00:19:54;100726.41;;;15.91;75.27
57192;BME280;43052;52.588;13.396;2022-10-16T00:22:20;100722.31;;;15.79;75.23
57192;BME280;43052;52.588;13.396;2022-10-16T00:24:45;100730.16;;;15.82;75.26
57192;BME280;43052;52.588;13.396;2022-10-16T00:27:10;100725.13;;;15.73;75.37
57192;BME280;43052;52.588;13.396;2022-10-16T00:29:35;100736.38;;;15.80;75.46
57192;BME280;43052;52.588;13.396;2022-10-16T00:32:00;100732.84;;;15.79;75.58
57192;BME280;43052;52.588;13.396;2022-10-16T00:34:26;100742.56;;;15.79;75.56
57192;BME280;43052;52.588;13.396;2022-10-16T00:36:51;100734.81;;;15.73;75.34
57192;BME280;43052;52.588;13.396;2022-10-16T00:39:16;100747.78;;;15.80;75.60
57192;BME280;43052;52.588;13.396;2022-10-16T00:41:41;100740.88;;;15.75;75.74
57192;BME280;43052;52.588;13.396;2022-10-16T00:47:15;100746.41;;;15.67;75.48
57192;BME280;43052;52.588;13.396;2022-10-16T00:49:42;100738.59;;;15.62;75.98
57192;BME280;43052;52.588;13.396;2022-10-16T00:52:08;100736.09;;;15.58;75.70
57192;BME280;43052;52.588;13.396;2022-10-16T00:54:33;100737.06;;;15.55;75.86
57192;BME280;43052;52.588;13.396;2022-10-16T00:57:01;100742.31;;;15.55;75.99
57192;BME280;43052;52.588;13.396;2022-10-16T00:59:39;100740.47;;;15.57;76.20
57192;BME280;43052;52.588;13.396;2022-10-16T01:02:06;100746.66;;;15.56;76.03
57192;BME280;43052;52.588;13.396;2022-10-16T01:04:39;100752.88;;;15.54;76.38
57192;BME280;43052;52.588;13.396;2022-10-16T01:07:53;100758.94;;;15.57;76.30
57192;BME280;43052;52.588;13.396;2022-10-16T01:10:28;100753.66;;;15.57;76.21
57192;BME280;43052;52.588;13.396;2022-10-16T01:13:06;100765.03;;;15.59;76.32
57192;BME280;43052;52.588;13.396;2022-10-16T01:15:37;100759.81;;;15.58;76.24
57192;BME280;43052;52.588;13.396;2022-10-16T01:18:13;100762.47;;;15.56;76.42
57192;BME280;43052;52.588;13.396;2022-10-16T01:23:29;100769.72;;;15.48;76.32
57192;BME280;43052;52.588;13.396;2022-10-16T01:26:13;100757.50;;;15.45;76.79
57192;BME280;43052;52.588;13.396;2022-10-16T01:31:18;100760.00;;;15.50;76.58
57192;BME280;43052;52.588;13.396;2022-10-16T01:33:53;100764.25;;;15.56;76.62
57192;BME280;43052;52.588;13.396;2022-10-16T01:36:21;100773.91;;;15.57;76.60
57192;BME280;43052;52.588;13.396;2022-10-16T01:38:51;100765.28;;;15.50;76.55
57192;BME280;43052;52.588;13.396;2022-10-16T01:41:24;100776.69;;;15.50;76.57
57192;BME280;43052;52.588;13.396;2022-10-16T01:44:05;100787.13;;;15.54;76.77
57192;BME280;43052;52.588;13.396;2022-10-16T01:46:34;100787.19;;;15.52;76.52
57192;BME280;43052;52.588;13.396;2022-10-16T01:49:02;100774.06;;;15.50;76.72
57192;BME280;43052;52.588;13.396;2022-10-16T01:51:28;100774.97;;;15.49;76.97
57192;BME280;43052;52.588;13.396;2022-10-16T01:53:57;100784.50;;;15.54;76.89
57192;BME280;43052;52.588;13.396;2022-10-16T01:56:25;100779.28;;;15.52;76.84
57192;BME280;43052;52.588;13.396;2022-10-16T01:59:11;100780.13;;;15.54;77.00
57192;BME280;43052;52.588;13.396;2022-10-16T02:01:40;100788.94;;;15.53;76.87
57192;BME280;43052;52.588;13.396;2022-10-16T02:04:13;100784.50;;;15.55;76.72
57192;BME280;43052;52.588;13.396;2022-10-16T02:06:40;100778.28;;;15.56;76.92
57192;BME280;43052;52.588;13.396;2022-10-16T02:09:05;100799.34;;;15.58;77.15
57192;BME280;43052;52.588;13.396;2022-10-16T02:11:31;100791.56;;;15.53;76.87
57192;BME280;43052;52.588;13.396;2022-10-16T02:14:02;100794.03;;;15.59;76.89
57192;BME280;43052;52.588;13.396;2022-10-16T02:16:36;100799.22;;;15.62;76.82
57192;BME280;43052;52.588;13.396;2022-10-16T02:19:03;100809.72;;;15.64;76.73
57192;BME280;43052;52.588;13.396;2022-10-16T02:21:35;100821.94;;;15.68;76.56
57192;BME280;43052;52.588;13.396;2022-10-16T02:24:31;100819.31;;;15.68;76.58
57192;BME280;43052;52.588;13.396;2022-10-16T02:27:06;100802.69;;;15.64;76.34
57192;BME280;43052;52.588;13.396;2022-10-16T02:29:39;100801.78;;;15.65;76.42
57192;BME280;43052;52.588;13.396;2022-10-16T02:32:07;100804.34;;;15.69;76.34
57192;BME280;43052;52.588;13.396;2022-10-16T02:34:35;100803.50;;;15.66;76.29
57192;BME280;43052;52.588;13.396;2022-10-16T02:37:01;100827.88;;;15.75;76.25
57192;BME280;43052;52.588;13.396;2022-10-16T02:39:29;100827.81;;;15.78;76.14
57192;BME280;43052;52.588;13.396;2022-10-16T02:41:55;100828.06;;;15.69;76.21
57192;BME280;43052;52.588;13.396;2022-10-16T02:44:20;100829.72;;;15.73;76.24
57192;BME280;43052;52.588;13.396;2022-10-16T02:46:46;100822.59;;;15.76;76.17
57192;BME280;43052;52.588;13.396;2022-10-16T02:49:11;100827.81;;;15.78;76.06
57192;BME280;43052;52.588;13.396;2022-10-16T02:51:36;100829.59;;;15.77;76.05
57192;BME280;43052;52.588;13.396;2022-10-16T02:54:02;100809.59;;;15.69;75.92
57192;BME280;43052;52.588;13.396;2022-10-16T02:56:27;100832.25;;;15.76;75.92
57192;BME280;43052;52.588;13.396;2022-10-16T02:58:53;100829.78;;;15.70;75.88
57192;BME280;43052;52.588;13.396;2022-10-16T03:01:18;100834.41;;;15.61;75.97
57192;BME280;43052;52.588;13.396;2022-10-16T03:03:43;100827.66;;;15.49;76.12
57192;BME280;43052;52.588;13.396;2022-10-16T03:06:08;100828.47;;;15.53;76.13
57192;BME280;43052;52.588;13.396;2022-10-16T03:08:34;100832.97;;;15.48;76.03
57192;BME280;43052;52.588;13.396;2022-10-16T03:10:59;100834.97;;;15.38;76.03
57192;BME280;43052;52.588;13.396;2022-10-16T03:13:24;100825.44;;;15.32;76.16
57192;BME280;43052;52.588;13.396;2022-10-16T03:15:49;100836.09;;;15.28;76.12
57192;BME280;43052;52.588;13.396;2022-10-16T03:18:15;100845.91;;;15.21;76.14
57192;BME280;43052;52.588;13.396;2022-10-16T03:20:42;100832.03;;;15.14;76.29
57192;BME280;43052;52.588;13.396;2022-10-16T03:23:08;100848.75;;;15.12;76.41
57192;BME280;43052;52.588;13.396;2022-10-16T03:25:33;100856.63;;;15.12;76.33
57192;BME280;43052;52.588;13.396;2022-10-16T03:27:58;100859.41;;;15.06;76.98
57192;BME280;43052;52.588;13.396;2022-10-16T03:30:23;100856.06;;;14.99;76.33
57192;BME280;43052;52.588;13.396;2022-10-16T03:32:49;100851.78;;;14.95;76.44
57192;BME280;43052;52.588;13.396;2022-10-16T03:35:19;100860.72;;;14.87;76.80
57192;BME280;43052;52.588;13.396;2022-10-16T03:37:44;100864.34;;;14.82;76.60
57192;BME280;43052;52.588;13.396;2022-10-16T03:40:09;100862.75;;;14.75;76.90
57192;BME280;43052;52.588;13.396;2022-10-16T03:42:35;100865.47;;;14.70;77.07
57192;BME280;43052;52.588;13.396;2022-10-16T03:45:00;100865.59;;;14.62;77.08
57192;BME280;43052;52.588;13.396;2022-10-16T03:47:25;100870.91;;;14.61;77.06
57192;BME280;43052;52.588;13.396;2022-10-16T03:49:50;100874.50;;;14.55;77.18
57192;BME280;43052;52.588;13.396;2022-10-16T03:52:16;100872.06;;;14.46;77.09
57192;BME280;43052;52.588;13.396;2022-10-16T03:54:41;100892.31;;;14.42;77.18
57192;BME280;43052;52.588;13.396;2022-10-16T03:57:07;100895.78;;;14.44;77.35
57192;BME280;43052;52.588;13.396;2022-10-16T03:59:32;100888.88;;;14.37;77.52
57192;BME280;43052;52.588;13.396;2022-10-16T04:01:57;100896.72;;;14.40;77.81
57192;BME280;43052;52.588;13.396;2022-10-16T04:04:22;100895.88;;;14.39;78.00
57192;BME280;43052;52.588;13.396;2022-10-16T04:06:48;100892.41;;;14.37;78.52
57192;BME280;43052;52.588;13.396;2022-10-16T04:09:13;100886.28;;;14.35;78.49
57192;BME280;43052;52.588;13.396;2022-10-16T04:11:38;100904.53;;;14.45;78.40
57192;BME280;43052;52.588;13.396;2022-10-16T04:14:04;100903.63;;;14.46;78.46
57192;BME280;43052;52.588;13.396;2022-10-16T04:16:29;100908.91;;;14.46;78.66
57192;BME280;43052;52.588;13.396;2022-10-16T04:18:54;100908.00;;;14.47;78.78
57192;BME280;43052;52.588;13.396;2022-10-16T04:21:20;100911.47;;;14.49;78.60
57192;BME280;43052;52.588;13.396;2022-10-16T04:23:45;100904.41;;;14.51;78.87
57192;BME280;43052;52.588;13.396;2022-10-16T04:26:11;100894.03;;;14.43;78.82
57192;BME280;43052;52.588;13.396;2022-10-16T04:28:36;100907.19;;;14.43;78.92
57192;BME280;43052;52.588;13.396;2022-10-16T04:31:06;100907.25;;;14.40;78.82
57192;BME280;43052;52.588;13.396;2022-10-16T04:33:31;100907.28;;;14.38;79.03
57192;BME280;43052;52.588;13.396;2022-10-16T04:35:57;100895.97;;;14.33;78.97
57192;BME280;43052;52.588;13.396;2022-10-16T04:38:23;100893.28;;;14.36;79.68
57192;BME280;43052;52.588;13.396;2022-10-16T04:40:48;100895.88;;;14.38;79.43
57192;BME280;43052;52.588;13.396;2022-10-16T04:43:13;100899.41;;;14.37;79.44
57192;BME280;43052;52.588;13.396;2022-10-16T04:45:39;100889.91;;;14.30;79.76
57192;BME280;43052;52.588;13.396;2022-10-16T04:48:04;100893.38;;;14.32;79.53
57192;BME280;43052;52.588;13.396;2022-10-16T04:50:29;100894.31;;;14.29;79.58
57192;BME280;43052;52.588;13.396;2022-10-16T04:52:54;100889.91;;;14.30;79.85
57192;BME280;43052;52.588;13.396;2022-10-16T04:55:20;100889.03;;;14.29;80.15
57192;BME280;43052;52.588;13.396;2022-10-16T04:57:45;100882.97;;;14.25;80.00
57192;BME280;43052;52.588;13.396;2022-10-16T05:00:11;100882.22;;;14.19;79.85
57192;BME280;43052;52.588;13.396;2022-10-16T05:02:37;100895.25;;;14.25;79.91
57192;BME280;43052;52.588;13.396;2022-10-16T05:05:02;100904.94;;;14.23;79.92
57192;BME280;43052;52.588;13.396;2022-10-16T05:07:27;100912.88;;;14.20;79.86
57192;BME280;43052;52.588;13.396;2022-10-16T05:09:52;100913.81;;;14.16;79.97
57192;BME280;43052;52.588;13.396;2022-10-16T05:12:18;100918.31;;;14.10;80.03
57192;BME280;43052;52.588;13.396;2022-10-16T05:14:43;100928.88;;;14.07;79.95
57192;BME280;43052;52.588;13.396;2022-10-16T05:17:09;100924.59;;;14.02;80.13
57192;BME280;43052;52.588;13.396;2022-10-16T05:19:34;100929.03;;;14.00;80.29
57192;BME280;43052;52.588;13.396;2022-10-16T05:21:59;100929.94;;;13.97;80.38
57192;BME280;43052;52.588;13.396;2022-10-16T05:24:25;100935.16;;;13.99;80.19
57192;BME280;43052;52.588;13.396;2022-10-16T05:26:50;100932.50;;;14.00;80.38
57192;BME280;43052;52.588;13.396;2022-10-16T05:29:16;100932.44;;;14.05;80.82
57192;BME280;43052;52.588;13.396;2022-10-16T05:31:41;100934.09;;;14.10;80.63
57192;BME280;43052;52.588;13.396;2022-10-16T05:34:07;100933.97;;;14.18;80.55
57192;BME280;43052;52.588;13.396;2022-10-16T05:36:32;100924.25;;;14.22;80.55
57192;BME280;43052;52.588;13.396;2022-10-16T05:38:57;100919.06;;;14.17;80.69
57192;BME280;43052;52.588;13.396;2022-10-16T05:41:22;100941.66;;;14.29;80.59
57192;BME280;43052;52.588;13.396;2022-10-16T05:43:50;100951.16;;;14.36;80.60
57192;BME280;43052;52.588;13.396;2022-10-16T05:46:16;100950.94;;;14.47;80.45
57192;BME280;43052;52.588;13.396;2022-10-16T05:48:42;100951.75;;;14.51;80.25
57192;BME280;43052;52.588;13.396;2022-10-16T05:51:10;100941.28;;;14.49;80.37
57192;BME280;43052;52.588;13.396;2022-10-16T05:53:37;100952.34;;;14.68;80.25
57192;BME280;43052;52.588;13.396;2022-10-16T05:56:03;100947.78;;;14.77;80.13
57192;BME280;43052;52.588;13.396;2022-10-16T05:58:31;100948.50;;;14.86;80.06
57192;BME280;43052;52.588;13.396;2022-10-16T06:01:05;100949.16;;;14.96;79.69
57192;BME280;43052;52.588;13.396;2022-10-16T06:03:32;100955.16;;;15.03;79.57
57192;BME280;43052;52.588;13.396;2022-10-16T06:05:57;100938.50;;;15.02;79.42
57192;BME280;43052;52.588;13.396;2022-10-16T06:08:23;100949.66;;;15.15;79.08
57192;BME280;43052;52.588;13.396;2022-10-16T06:10:49;100949.66;;;15.14;78.85
57192;BME280;43052;52.588;13.396;2022-10-16T06:13:15;100957.56;;;15.15;78.71
57192;BME280;43052;52.588;13.396;2022-10-16T06:15:41;100965.16;;;15.28;78.48
57192;BME280;43052;52.588;13.396;2022-10-16T06:18:08;100972.88;;;15.37;78.45
57192;BME280;43052;52.588;13.396;2022-10-16T06:20:34;100956.13;;;15.40;78.08
57192;BME280;43052;52.588;13.396;2022-10-16T06:22:59;100967.25;;;15.54;77.92
57192;BME280;43052;52.588;13.396;2022-10-16T06:25:24;100955.03;;;15.50;77.60
57192;BME280;43052;52.588;13.396;2022-10-16T06:27:49;100974.09;;;15.61;77.47
57192;BME280;43052;52.588;13.396;2022-10-16T06:30:15;100959.25;;;15.57;77.43
57192;BME280;43052;52.588;13.396;2022-10-16T06:32:40;100963.41;;;15.67;77.19
57192;BME280;43052;52.588;13.396;2022-10-16T06:35:05;100982.69;;;15.70;77.18
57192;BME280;43052;52.588;13.396;2022-10-16T06:37:31;100989.66;;;15.72;77.00
57192;BME280;43052;52.588;13.396;2022-10-16T06:39:56;100980.91;;;15.72;76.90
57192;BME280;43052;52.588;13.396;2022-10-16T06:42:21;101002.66;;;15.80;76.60
57192;BME280;43052;52.588;13.396;2022-10-16T06:44:46;101002.53;;;15.86;76.66
57192;BME280;43052;52.588;13.396;2022-10-16T06:47:11;101003.22;;;15.94;76.43
57192;BME280;43052;52.588;13.396;2022-10-16T06:49:37;101008.34;;;16.01;76.40
57192;BME280;43052;52.588;13.396;2022-10-16T06:52:02;101010.69;;;16.13;76.37
57192;BME280;43052;52.588;13.396;2022-10-16T06:54:28;101009.56;;;16.23;75.85
57192;BME280;43052;52.588;13.396;2022-10-16T06:56:53;100998.78;;;16.31;75.47
57192;BME280;43052;52.588;13.396;2022-10-16T06:59:20;100997.78;;;16.37;75.53
57192;BME280;43052;52.588;13.396;2022-10-16T07:01:45;101008.94;;;16.48;75.09
57192;BME280;43052;52.588;13.396;2022-10-16T07:04:10;101000.88;;;16.53;75.01
57192;BME280;43052;52.588;13.396;2022-10-16T07:06:36;101016.28;;;16.70;74.55
57192;BME280;43052;52.588;13.396;2022-10-16T07:09:06;101023.03;;;16.80;73.75
57192;BME280;43052;52.588;13.396;2022-10-16T07:11:32;101027.50;;;16.78;73.47
57192;BME280;43052;52.588;13.396;2022-10-16T07:13:57;101034.34;;;16.85;73.54
57192;BME280;43052;52.588;13.396;2022-10-16T07:16:25;101046.25;;;17.02;72.98
57192;BME280;43052;52.588;13.396;2022-10-16T07:18:51;101043.16;;;17.17;73.17
57192;BME280;43052;52.588;13.396;2022-10-16T07:21:22;101041.16;;;17.27;72.31
57192;BME280;43052;52.588;13.396;2022-10-16T07:23:52;101042.81;;;17.30;72.33
57192;BME280;43052;52.588;13.396;2022-10-16T07:26:17;101020.09;;;17.24;71.92
57192;BME280;43052;52.588;13.396;2022-10-16T07:28:43;101033.94;;;17.32;71.58
57192;BME280;43052;52.588;13.396;2022-10-16T07:31:11;101031.03;;;17.42;71.52
57192;BME280;43052;52.588;13.396;2022-10-16T07:33:38;101032.38;;;17.55;71.25
57192;BME280;43052;52.588;13.396;2022-10-16T07:36:04;101040.03;;;17.64;70.88
57192;BME280;43052;52.588;13.396;2022-10-16T07:38:29;101032.50;;;17.80;70.77
57192;BME280;43052;52.588;13.396;2022-10-16T07:41:02;101025.44;;;18.09;70.18
57192;BME280;43052;52.588;13.396;2022-10-16T07:43:28;101044.91;;;18.33;69.26
57192;BME280;43052;52.588;13.396;2022-10-16T07:45:54;101053.06;;;18.54;68.81
57192;BME280;43052;52.588;13.396;2022-10-16T07:48:21;101047.28;;;18.68;68.54
57192;BME280;43052;52.588;13.396;2022-10-16T07:50:46;101042.69;;;18.73;68.22
57192;BME280;43052;52.588;13.396;2022-10-16T07:53:12;101036.69;;;18.68;67.67
57192;BME280;43052;52.588;13.396;2022-10-16T07:55:38;101030.47;;;18.69;67.76
57192;BME280;43052;52.588;13.396;2022-10-16T07:58:04;101029.50;;;18.72;67.48
57192;BME280;43052;52.588;13.396;2022-10-16T08:00:30;101036.25;;;18.81;67.08
57192;BME280;43052;52.588;13.396;2022-10-16T08:02:59;101040.22;;;18.69;66.58
57192;BME280;43052;52.588;13.396;2022-10-16T08:05:28;101053.94;;;18.55;66.78
57192;BME280;43052;52.588;13.396;2022-10-16T08:07:54;101063.25;;;18.40;66.82
57192;BME280;43052;52.588;13.396;2022-10-16T08:10:21;101075.00;;;18.31;67.38
57192;BME280;43052;52.588;13.396;2022-10-16T08:12:47;101081.28;;;18.28;67.37
57192;BME280;43052;52.588;13.396;2022-10-16T08:15:12;101081.41;;;18.24;67.77
57192;BME280;43052;52.588;13.396;2022-10-16T08:17:38;101061.28;;;18.20;67.84
57192;BME280;43052;52.588;13.396;2022-10-16T08:20:04;101075.72;;;18.36;67.49
57192;BME280;43052;52.588;13.396;2022-10-16T08:22:29;101066.56;;;18.46;67.45
57192;BME280;43052;52.588;13.396;2022-10-16T08:24:54;101058.34;;;18.54;67.24
57192;BME280;43052;52.588;13.396;2022-10-16T08:27:20;101059.78;;;18.64;66.82
57192;BME280;43052;52.588;13.396;2022-10-16T08:29:45;101061.94;;;18.78;66.59
57192;BME280;43052;52.588;13.396;2022-10-16T08:32:10;101072.78;;;18.98;66.53
57192;BME280;43052;52.588;13.396;2022-10-16T08:34:35;101066.63;;;18.97;65.76
57192;BME280;43052;52.588;13.396;2022-10-16T08:37:01;101079.06;;;18.95;65.42
57192;BME280;43052;52.588;13.396;2022-10-16T08:39:26;101073.19;;;18.85;65.51
57192;BME280;43052;52.588;13.396;2022-10-16T08:42:19;101073.81;;;18.93;65.57
57192;BME280;43052;52.588;13.396;2022-10-16T08:47:49;101083.94;;;19.31;64.33
57192;BME280;43052;52.588;13.396;2022-10-16T08:50:23;101073.22;;;19.58;63.66
57192;BME280;43052;52.588;13.396;2022-10-16T08:52:50;101075.34;;;19.72;63.59
57192;BME280;43052;52.588;13.396;2022-10-16T08:55:43;101073.72;;;19.68;63.44
57192;BME280;43052;52.588;13.396;2022-10-16T08:58:21;101090.50;;;20.14;62.95
57192;BME280;43052;52.588;13.396;2022-10-16T09:00:51;101077.75;;;20.88;61.24
57192;BME280;43052;52.588;13.396;2022-10-16T09:03:37;101092.19;;;21.62;59.58
57192;BME280;43052;52.588;13.396;2022-10-16T09:06:17;101096.13;;;22.47;58.01
57192;BME280;43052;52.588;13.396;2022-10-16T09:09:08;101090.41;;;24.21;54.01
57192;BME280;43052;52.588;13.396;2022-10-16T09:11:48;101098.31;;;25.57;50.00
57192;BME280;43052;52.588;13.396;2022-10-16T09:14:39;101106.97;;;25.75;48.63
57192;BME280;43052;52.588;13.396;2022-10-16T09:17:22;101102.97;;;25.68;48.97
57192;BME280;43052;52.588;13.396;2022-10-16T09:19:59;101109.53;;;26.99;46.43
57192;BME280;43052;52.588;13.396;2022-10-16T09:22:30;101094.84;;;28.54;42.91
57192;BME280;43052;52.588;13.396;2022-10-16T09:24:59;101093.63;;;29.28;40.91
57192;BME280;43052;52.588;13.396;2022-10-16T09:27:25;101102.19;;;29.67;39.64
57192;BME280;43052;52.588;13.396;2022-10-16T09:29:51;101099.13;;;29.26;39.54
57192;BME280;43052;52.588;13.396;2022-10-16T09:32:19;101100.38;;;29.45;39.73
57192;BME280;43052;52.588;13.396;2022-10-16T09:34:48;101103.09;;;30.44;37.67
57192;BME280;43052;52.588;13.396;2022-10-16T09:37:18;101097.19;;;31.54;35.82
57192;BME280;43052;52.588;13.396;2022-10-16T09:39:51;101091.19;;;32.11;33.87
57192;BME280;43052;52.588;13.396;2022-10-16T09:42:22;101100.56;;;33.89;31.63
57192;BME280;43052;52.588;13.396;2022-10-16T09:44:52;101105.91;;;35.06;29.93
57192;BME280;43052;52.588;13.396;2022-10-16T09:47:21;101117.13;;;34.84;28.88
57192;BME280;43052;52.588;13.396;2022-10-16T09:49:56;101121.41;;;34.25;30.27
57192;BME280;43052;52.588;13.396;2022-10-16T09:52:24;101118.63;;;33.05;31.28
57192;BME280;43052;52.588;13.396;2022-10-16T09:54:57;101129.78;;;32.82;31.85
57192;BME280;43052;52.588;13.396;2022-10-16T09:57:24;101125.25;;;34.76;29.27
57192;BME280;43052;52.588;13.396;2022-10-16T09:59:54;101129.28;;;34.90;29.23
57192;BME280;43052;52.588;13.396;2022-10-16T10:02:28;101134.69;;;37.18;26.31
57192;BME280;43052;52.588;13.396;2022-10-16T10:04:54;101132.44;;;39.61;23.55
57192;BME280;43052;52.588;13.396;2022-10-16T10:07:26;101139.50;;;41.07;21.58
57192;BME280;43052;52.588;13.396;2022-10-16T10:09:52;101128.53;;;40.07;22.37
57192;BME280;43052;52.588;13.396;2022-10-16T10:12:20;101134.59;;;36.78;24.82
57192;BME280;43052;52.588;13.396;2022-10-16T10:14:48;101154.91;;;33.59;28.77
57192;BME280;43052;52.588;13.396;2022-10-16T10:17:17;101150.94;;;31.05;31.93
57192;BME280;43052;52.588;13.396;2022-10-16T10:19:52;101153.47;;;29.20;35.18
57192;BME280;43052;52.588;13.396;2022-10-16T10:22:19;101146.34;;;27.99;37.56
57192;BME280;43052;52.588;13.396;2022-10-16T10:27:53;101154.16;;;26.87;40.12
57192;BME280;43052;52.588;13.396;2022-10-16T10:38:38;101178.34;;;25.47;42.56
57192;BME280;43052;52.588;13.396;2022-10-16T10:41:18;101184.69;;;25.16;43.37
57192;BME280;43052;52.588;13.396;2022-10-16T10:44:12;101188.88;;;25.20;43.70
57192;BME280;43052;52.588;13.396;2022-10-16T10:46:51;101181.75;;;25.21;43.71
57192;BME280;43052;52.588;13.396;2022-10-16T10:49:36;101177.78;;;24.97;44.20
57192;BME280;43052;52.588;13.396;2022-10-16T10:52:15;101178.22;;;24.90;44.63
57192;BME280;43052;52.588;13.396;2022-10-16T10:55:29;101176.72;;;25.14;44.42
57192;BME280;43052;52.588;13.396;2022-10-16T10:58:29;101170.16;;;25.20;44.29
57192;BME280;43052;52.588;13.396;2022-10-16T11:01:08;101185.94;;;25.25;44.25
57192;BME280;43052;52.588;13.396;2022-10-16T11:04:02;101182.25;;;25.42;44.01
57192;BME280;43052;52.588;13.396;2022-10-16T11:06:40;101161.75;;;25.26;43.54
57192;BME280;43052;52.588;13.396;2022-10-16T11:09:12;101177.97;;;25.09;43.73
57192;BME280;43052;52.588;13.396;2022-10-16T11:11:44;101185.06;;;24.79;44.23
57192;BME280;43052;52.588;13.396;2022-10-16T11:14:18;101179.38;;;24.53;44.73
57192;BME280;43052;52.588;13.396;2022-10-16T11:19:23;101180.28;;;24.22;45.32
57192;BME280;43052;52.588;13.396;2022-10-16T11:22:04;101178.03;;;24.30;45.72
57192;BME280;43052;52.588;13.396;2022-10-16T11:24:54;101180.91;;;24.27;45.60
57192;BME280;43052;52.588;13.396;2022-10-16T11:27:38;101174.88;;;24.23;45.65
57192;BME280;43052;52.588;13.396;2022-10-16T11:30:13;101164.72;;;24.14;45.84
57192;BME280;43052;52.588;13.396;2022-10-16T11:32:54;101177.97;;;24.16;45.87
57192;BME280;43052;52.588;13.396;2022-10-16T11:35:32;101176.06;;;24.02;46.15
57192;BME280;43052;52.588;13.396;2022-10-16T11:38:03;101177.41;;;23.77;46.16
57192;BME280;43052;52.588;13.396;2022-10-16T11:40:33;101165.34;;;23.36;46.90
57192;BME280;43052;52.588;13.396;2022-10-16T11:43:18;101178.91;;;23.14;46.47
57192;BME280;43052;52.588;13.396;2022-10-16T11:45:51;101169.81;;;22.83;46.98
57192;BME280;43052;52.588;13.396;2022-10-16T11:48:33;101177.06;;;22.62;47.37
57192;BME280;43052;52.588;13.396;2022-10-16T11:51:17;101186.06;;;22.42;47.56
57192;BME280;43052;52.588;13.396;2022-10-16T11:53:56;101174.41;;;22.06;48.08
57192;BME280;43052;52.588;13.396;2022-10-16T11:56:23;101188.78;;;21.83;48.96
57192;BME280;43052;52.588;13.396;2022-10-16T12:07:10;101198.28;;;21.28;49.02
57192;BME280;43052;52.588;13.396;2022-10-16T12:09:39;101199.16;;;21.28;48.92
57192;BME280;43052;52.588;13.396;2022-10-16T12:12:24;101209.53;;;21.35;49.02
57192;BME280;43052;52.588;13.396;2022-10-16T12:15:00;101203.31;;;21.34;48.82
57192;BME280;43052;52.588;13.396;2022-10-16T12:17:34;101211.47;;;21.31;48.25
57192;BME280;43052;52.588;13.396;2022-10-16T12:22:41;101204.88;;;21.19;47.93
57192;BME280;43052;52.588;13.396;2022-10-16T12:25:21;101216.44;;;21.18;48.52
57192;BME280;43052;52.588;13.396;2022-10-16T12:27:54;101207.22;;;21.06;48.81
57192;BME280;43052;52.588;13.396;2022-10-16T12:30:23;101205.31;;;20.88;48.44
57192;BME280;43052;52.588;13.396;2022-10-16T12:32:53;101205.69;;;20.78;48.58
57192;BME280;43052;52.588;13.396;2022-10-16T12:35:22;101218.34;;;20.72;48.96
57192;BME280;43052;52.588;13.396;2022-10-16T12:37:49;101215.19;;;20.62;48.95
57192;BME280;43052;52.588;13.396;2022-10-16T12:42:47;101223.72;;;20.48;49.03
57192;BME280;43052;52.588;13.396;2022-10-16T12:45:27;101215.19;;;20.40;49.38
57192;BME280;43052;52.588;13.396;2022-10-16T12:47:54;101233.47;;;20.47;48.92
57192;BME280;43052;52.588;13.396;2022-10-16T12:50:35;101231.81;;;20.45;49.04
57192;BME280;43052;52.588;13.396;2022-10-16T12:53:16;101235.44;;;20.42;48.94
57192;BME280;43052;52.588;13.396;2022-10-16T12:56:19;101237.94;;;20.47;48.94
57192;BME280;43052;52.588;13.396;2022-10-16T12:59:02;101237.66;;;20.53;48.68
57192;BME280;43052;52.588;13.396;2022-10-16T13:04:22;101236.81;;;20.53;48.47
57192;BME280;43052;52.588;13.396;2022-10-16T13:07:09;101236.50;;;20.60;48.28
57192;BME280;43052;52.588;13.396;2022-10-16T13:10:26;101244.88;;;20.73;48.09
57192;BME280;43052;52.588;13.396;2022-10-16T13:13:07;101261.44;;;20.80;47.86
57192;BME280;43052;52.588;13.396;2022-10-16T13:15:55;101248.38;;;20.96;47.04
57192;BME280;43052;52.588;13.396;2022-10-16T13:28:47;101275.59;;;20.57;47.93
57192;BME280;43052;52.588;13.396;2022-10-16T13:31:19;101284.06;;;20.44;47.59
57192;BME280;43052;52.588;13.396;2022-10-16T13:33:47;101279.16;;;20.33;47.72
57192;BME280;43052;52.588;13.396;2022-10-16T13:36:24;101281.78;;;20.35;47.84
57192;BME280;43052;52.588;13.396;2022-10-16T13:41:40;101280.63;;;20.18;47.46
57192;BME280;43052;52.588;13.396;2022-10-16T13:44:18;101279.00;;;20.14;48.20
57192;BME280;43052;52.588;13.396;2022-10-16T13:46:44;101280.09;;;20.09;47.94
57192;BME280;43052;52.588;13.396;2022-10-16T13:49:14;101275.13;;;19.99;47.51